Time;durP1;ratioP1;P1;durP2;ratioP2;P2;SDS_P1;SDS_P2;PMS_P1;PMS_P2;Temp;Humidity;BMP_temperature;BMP_pressure;BME280_temperature;BME280_humidity;BME280_pressure;Samples;Min_cycle;Max_cycle;Signal;HPM_P1;HPM_P2
2021/12/14 00:00:27;;;;;;;21.95;15.80;;;;;;;3.82;79.85;101236.59;5092250;27;20164;-70
2021/12/14 00:02:54;;;;;;;21.63;15.80;;;;;;;4.08;79.66;101255.81;5110510;27;20080;-70
2021/12/14 00:05:24;;;;;;;25.33;17.23;;;;;;;4.54;79.09;101269.69;5090516;27;20050;-70
2021/12/14 00:07:51;;;;;;;22.83;16.70;;;;;;;4.30;78.94;101254.06;5107468;27;20082;-70
2021/12/14 00:13:06;;;;;;;19.73;15.70;;;;;;;4.57;78.46;101243.84;5106907;27;20042;-69
2021/12/14 00:15:32;;;;;;;27.75;14.60;;;;;;;4.49;78.76;101242.66;5108945;27;20062;-70
2021/12/14 00:18:04;;;;;;;28.67;16.83;;;;;;;4.65;78.27;101278.78;5111808;27;20023;-70
2021/12/14 00:20:38;;;;;;;27.38;16.20;;;;;;;4.51;78.58;101277.38;5092578;27;20118;-70
2021/12/14 00:25:43;;;;;;;22.33;15.55;;;;;;;5.03;78.04;101250.72;5093343;27;20102;-68
2021/12/14 00:28:31;;;;;;;23.25;16.63;;;;;;;4.95;77.27;101247.84;5095288;27;20502;-70
2021/12/14 00:30:59;;;;;;;23.95;14.18;;;;;;;4.84;77.83;101252.66;5107876;27;20567;-70
2021/12/14 00:33:31;;;;;;;29.77;15.80;;;;;;;5.08;77.50;101275.22;5091271;27;20032;-70
2021/12/14 00:35:59;;;;;;;21.10;13.40;;;;;;;4.73;76.09;101285.19;5112658;27;20126;-69
2021/12/14 00:38:24;;;;;;;20.25;15.13;;;;;;;4.95;76.61;101292.06;5107740;27;20051;-70
2021/12/14 00:40:54;;;;;;;20.70;14.95;;;;;;;4.96;76.49;101279.94;5090665;27;20027;-69
2021/12/14 00:43:21;;;;;;;21.83;14.45;;;;;;;4.73;75.81;101277.38;5108478;27;20048;-69
2021/12/14 00:45:49;;;;;;;19.73;14.30;;;;;;;4.97;76.13;101254.00;5109584;27;23262;-69
2021/12/14 00:48:16;;;;;;;19.30;13.82;;;;;;;5.18;74.90;101256.47;5090683;27;20031;-69
2021/12/14 00:50:48;;;;;;;23.42;15.75;;;;;;;4.61;74.80;101259.63;5085942;27;20035;-69
2021/12/14 00:53:15;;;;;;;26.50;13.50;;;;;;;4.93;74.79;101256.44;5110178;27;20034;-69
2021/12/14 00:55:45;;;;;;;21.83;14.38;;;;;;;4.91;74.77;101255.47;5093192;27;20054;-69
2021/12/14 00:58:13;;;;;;;19.77;13.13;;;;;;;4.99;74.60;101280.94;5107886;27;20048;-69
2021/12/14 01:00:45;;;;;;;22.25;15.18;;;;;;;5.18;73.10;101277.28;5108792;27;20149;-69
2021/12/14 01:03:11;;;;;;;20.27;14.00;;;;;;;4.81;72.71;101275.06;5090937;27;20035;-69
2021/12/14 01:05:43;;;;;;;19.00;12.70;;;;;;;5.13;73.10;101270.13;5088210;27;20047;-69
2021/12/14 01:08:12;;;;;;;16.52;11.00;;;;;;;5.24;73.71;101293.13;5107420;27;20130;-69
2021/12/14 01:10:50;;;;;;;20.60;13.23;;;;;;;4.89;73.41;101271.00;5110031;27;20498;-69
2021/12/14 01:13:19;;;;;;;17.45;12.27;;;;;;;5.00;73.54;101274.91;5107002;27;20048;-69
2021/12/14 01:18:45;;;;;;;17.60;11.98;;;;;;;4.93;74.09;101264.22;5106662;27;20175;-68
2021/12/14 01:24:02;;;;;;;;;;;;;;;4.88;74.75;101289.19;5110754;27;20039;-66
2021/12/14 01:26:30;;;;;;;;;;;;;;;4.77;75.71;101274.03;5108295;27;19987;-67
2021/12/14 01:28:56;;;;;;;21.73;13.85;;;;;;;4.38;74.57;101276.03;5091806;27;19919;-70
2021/12/14 01:31:32;;;;;;;18.80;12.70;;;;;;;4.24;76.20;101288.47;5104257;27;20050;-69
2021/12/14 01:34:04;;;;;;;20.05;13.13;;;;;;;4.18;75.50;101288.22;5091878;27;20047;-69
2021/12/14 01:36:44;;;;;;;19.83;11.45;;;;;;;4.04;77.07;101286.78;5110013;27;20039;-69
2021/12/14 01:42:07;;;;;;;23.65;13.93;;;;;;;4.14;77.98;101296.72;5110029;27;20046;-69
2021/12/14 01:44:44;;;;;;;23.70;16.58;;;;;;;3.91;78.96;101286.28;5107651;27;20046;-70
2021/12/14 01:47:25;;;;;;;36.22;15.45;;;;;;;3.88;78.14;101277.47;5107658;27;20047;-69
2021/12/14 01:49:51;;;;;;;24.63;13.98;;;;;;;3.94;78.58;101268.25;5094479;27;20487;-70
2021/12/14 01:52:21;;;;;;;20.33;15.65;;;;;;;3.69;77.28;101296.59;5107603;27;20126;-69
2021/12/14 01:54:53;;;;;;;17.55;12.32;;;;;;;3.93;76.60;101308.03;5078237;27;20039;-69
2021/12/14 01:57:23;;;;;;;18.58;11.70;;;;;;;3.70;76.43;101314.84;5110379;27;20050;-70
2021/12/14 01:59:54;;;;;;;18.38;13.55;;;;;;;4.16;75.61;101288.16;5106396;27;20685;-70
2021/12/14 02:02:33;;;;;;;20.58;14.88;;;;;;;4.84;75.27;101319.38;5108820;27;20104;-70
2021/12/14 02:05:05;;;;;;;22.88;14.05;;;;;;;4.56;73.55;101296.63;5083847;27;20222;-69
2021/12/14 02:07:32;;;;;;;25.95;14.50;;;;;;;4.68;74.06;101289.28;5087184;27;20047;-69
2021/12/14 02:10:04;;;;;;;24.20;14.18;;;;;;;4.78;73.82;101286.25;5107486;27;20039;-69
2021/12/14 02:12:31;;;;;;;20.27;13.82;;;;;;;5.03;73.98;101324.44;5090139;27;20031;-69
2021/12/14 02:15:17;;;;;;;17.05;12.30;;;;;;;4.76;72.10;101297.41;5106878;27;20074;-70
2021/12/14 02:17:43;;;;;;;17.05;11.52;;;;;;;4.49;70.56;101297.22;5108124;27;20401;-69
2021/12/14 02:20:11;;;;;;;20.52;10.95;;;;;;;4.47;70.98;101298.88;5106890;27;20449;-69
2021/12/14 02:22:37;;;;;;;27.80;12.15;;;;;;;4.42;71.88;101328.19;5110379;27;20051;-68
2021/12/14 02:25:05;;;;;;;15.45;10.25;;;;;;;4.48;71.16;101308.47;5107134;27;20051;-68
2021/12/14 02:27:38;;;;;;;18.60;11.32;;;;;;;4.65;71.67;101330.78;5105528;27;20080;-69
2021/12/14 02:30:15;;;;;;;20.48;11.57;;;;;;;4.56;71.31;101307.91;5114145;27;20031;-69
2021/12/14 02:32:41;;;;;;;18.13;12.00;;;;;;;4.84;71.25;101315.06;5110916;27;20051;-69
2021/12/14 02:35:10;;;;;;;19.20;13.27;;;;;;;4.37;71.30;101311.50;5091000;27;20582;-70
2021/12/14 02:37:44;;;;;;;19.10;13.25;;;;;;;4.57;70.85;101342.59;5094410;27;20117;-70
2021/12/14 02:40:30;;;;;;;21.58;11.05;;;;;;;4.40;72.83;101300.34;5113269;27;20051;-70
2021/12/14 02:42:57;;;;;;;20.13;11.55;;;;;;;4.08;71.20;101306.88;5094701;27;20035;-68
2021/12/14 02:45:23;;;;;;;18.38;10.80;;;;;;;4.39;72.90;101309.84;5091780;27;20525;-70
2021/12/14 02:47:50;;;;;;;21.40;12.38;;;;;;;4.49;71.60;101305.03;5112031;27;20039;-70
2021/12/14 02:50:17;;;;;;;18.77;10.55;;;;;;;4.17;71.27;101331.50;5110090;27;20047;-70
2021/12/14 02:52:42;;;;;;;16.52;11.43;;;;;;;4.54;71.81;101309.59;5093101;27;20120;-70
2021/12/14 02:55:11;;;;;;;17.85;12.20;;;;;;;4.57;70.40;101298.44;5113240;27;20620;-70
2021/12/14 02:57:41;;;;;;;18.80;13.23;;;;;;;4.69;70.18;101308.41;5113924;27;20039;-69
2021/12/14 03:00:17;;;;;;;16.70;11.50;;;;;;;4.88;70.60;101302.19;5094087;27;20035;-69
2021/12/14 03:02:44;;;;;;;19.58;13.05;;;;;;;4.37;70.43;101321.91;5093141;27;20075;-69
2021/12/14 03:05:22;;;;;;;15.77;10.10;;;;;;;4.61;70.96;101345.38;5094875;27;20051;-70
2021/12/14 03:07:56;;;;;;;15.52;11.38;;;;;;;3.98;70.51;101310.78;5113435;27;20039;-69
2021/12/14 03:12:59;;;;;;;16.58;10.20;;;;;;;4.38;70.84;101321.09;5111023;27;20347;-70
2021/12/14 03:15:45;;;;;;;15.68;10.52;;;;;;;4.55;70.77;101352.06;5112992;27;20035;-69
2021/12/14 03:18:14;;;;;;;14.85;9.65;;;;;;;4.48;71.49;101321.44;5107657;27;20482;-70
2021/12/14 03:21:06;;;;;;;15.18;10.75;;;;;;;4.83;70.08;101347.09;5093239;27;20050;-70
2021/12/14 03:23:36;;;;;;;15.25;11.25;;;;;;;4.51;70.92;101313.75;5072198;27;20047;-69
2021/12/14 03:26:05;;;;;;;15.45;11.65;;;;;;;4.40;70.58;101352.31;5110157;27;20046;-70
2021/12/14 03:28:31;;;;;;;17.77;10.75;;;;;;;4.14;71.53;101343.47;5107564;27;20035;-70
2021/12/14 03:31:05;;;;;;;17.10;11.13;;;;;;;3.70;72.81;101314.84;5112035;27;20047;-70
2021/12/14 03:33:37;;;;;;;18.67;12.02;;;;;;;4.22;72.21;101324.78;5100987;27;20123;-70
2021/12/14 03:36:02;;;;;;;16.90;10.35;;;;;;;3.69;72.64;101313.06;5111475;27;20035;-69
2021/12/14 03:38:39;;;;;;;16.27;11.68;;;;;;;4.09;72.27;101335.47;5109086;27;20074;-69
2021/12/14 03:41:10;;;;;;;16.35;11.50;;;;;;;4.17;72.58;101352.28;5094534;27;20109;-69
2021/12/14 03:43:38;;;;;;;18.35;12.80;;;;;;;3.80;73.35;101326.50;5097677;27;20083;-69
2021/12/14 03:46:05;;;;;;;21.55;12.30;;;;;;;4.13;73.05;101334.78;5087471;27;20067;-70
2021/12/14 03:48:31;;;;;;;21.88;13.60;;;;;;;4.30;72.20;101329.41;5109247;27;20039;-69
2021/12/14 03:50:57;;;;;;;22.73;12.73;;;;;;;4.55;71.66;101354.66;5093424;27;20092;-69
2021/12/14 03:53:24;;;;;;;19.23;12.07;;;;;;;4.23;71.33;101341.25;5074567;27;20487;-69
2021/12/14 03:55:59;;;;;;;18.95;12.02;;;;;;;4.46;71.33;101343.88;5090749;27;20398;-69
2021/12/14 03:58:30;;;;;;;21.13;12.18;;;;;;;4.60;71.76;101356.59;5114583;27;20043;-70
2021/12/14 04:01:12;;;;;;;16.52;13.10;;;;;;;4.46;70.72;101362.09;5092330;27;20056;-69
2021/12/14 04:03:40;;;;;;;17.42;12.32;;;;;;;3.90;71.38;101343.34;5109233;27;20052;-70
2021/12/14 04:06:07;;;;;;;15.40;11.23;;;;;;;4.08;72.39;101335.44;5109486;27;20109;-69
2021/12/14 04:08:34;;;;;;;18.98;12.95;;;;;;;4.22;71.87;101361.16;5111536;27;20414;-69
2021/12/14 04:11:02;;;;;;;22.33;12.82;;;;;;;4.17;71.13;101338.41;5091372;27;20086;-69
2021/12/14 04:13:35;;;;;;;20.60;12.00;;;;;;;4.20;71.74;101344.59;5091711;27;20513;-70
2021/12/14 04:16:01;;;;;;;;;;;;;;;3.48;72.50;101338.09;5107539;27;20043;-68
2021/12/14 04:18:28;;;;;;;21.63;11.57;;;;;;;3.32;73.38;101362.47;5108967;27;19942;-70
2021/12/14 04:20:56;;;;;;;21.20;13.25;;;;;;;3.68;73.39;101360.59;5111196;27;20037;-69
2021/12/14 04:23:26;;;;;;;21.65;12.07;;;;;;;3.46;73.00;101339.72;5111332;27;20055;-70
2021/12/14 04:25:55;;;;;;;20.42;11.13;;;;;;;3.64;74.09;101342.25;5110644;27;20085;-69
2021/12/14 04:28:26;;;;;;;16.80;10.73;;;;;;;4.04;72.71;101365.56;5112452;27;20493;-70
2021/12/14 04:30:52;;;;;;;17.02;11.90;;;;;;;3.75;72.46;101336.69;5109431;27;20122;-69
2021/12/14 04:33:23;;;;;;;16.83;10.02;;;;;;;3.10;74.67;101377.06;5108183;27;20384;-70
2021/12/14 04:35:48;;;;;;;18.40;12.40;;;;;;;3.38;75.55;101352.38;5110873;27;20042;-70
2021/12/14 04:38:23;;;;;;;22.88;12.55;;;;;;;3.30;74.17;101374.47;5112308;27;20035;-70
2021/12/14 04:52:21;;;;;;;16.00;12.35;;;;;;;3.25;74.21;101369.06;5108988;27;20126;-69
2021/12/14 04:55:05;;;;;;;19.30;12.18;;;;;;;3.25;74.64;101391.53;5107620;27;20051;-69
2021/12/14 04:57:57;;;;;;;18.40;11.90;;;;;;;3.02;75.81;101396.56;5109136;27;20031;-70
2021/12/14 05:00:23;;;;;;;16.42;10.77;;;;;;;2.87;75.98;101377.69;5088521;27;20038;-69
2021/12/14 05:02:49;;;;;;;20.15;12.73;;;;;;;2.82;75.34;101385.25;5092685;27;20617;-69
2021/12/14 05:05:25;;;;;;;16.80;11.55;;;;;;;3.21;76.70;101392.19;5106931;27;20133;-69
2021/12/14 05:10:54;;;;;;;;;;;;;;;3.05;74.49;101412.25;5110027;27;20708;-67
2021/12/14 05:13:38;;;;;;;16.52;11.43;;;;;;;2.93;74.52;101412.56;5097139;27;19960;-70
2021/12/14 05:16:04;;;;;;;17.73;11.07;;;;;;;2.74;74.83;101390.09;5109262;27;20043;-70
2021/12/14 05:18:30;;;;;;;19.73;12.18;;;;;;;2.69;76.18;101399.34;5108640;27;20026;-70
2021/12/14 05:20:57;;;;;;;26.23;15.43;;;;;;;2.82;75.54;101399.94;5089839;27;20043;-70
2021/12/14 05:23:27;;;;;;;16.42;12.52;;;;;;;3.01;75.17;101397.38;5108665;27;20043;-70
2021/12/14 05:25:55;;;;;;;18.10;12.45;;;;;;;3.11;76.42;101388.31;5108185;27;20396;-70
2021/12/14 05:28:22;;;;;;;18.10;12.18;;;;;;;2.75;76.00;101390.97;5089686;27;20039;-71
2021/12/14 05:30:54;;;;;;;20.10;13.30;;;;;;;3.03;76.62;101407.81;5109733;27;20045;-70
2021/12/14 05:33:23;;;;;;;20.98;14.23;;;;;;;3.10;76.03;101433.22;5106301;27;20131;-70
2021/12/14 05:35:52;;;;;;;18.42;12.73;;;;;;;2.97;75.34;101418.78;5089709;27;20043;-70
2021/12/14 05:38:23;;;;;;;16.40;11.50;;;;;;;2.72;75.38;101403.78;5108991;27;20082;-70
2021/12/14 05:43:19;;;;;;;20.67;12.18;;;;;;;2.71;76.48;101407.19;5109489;27;20472;-70
2021/12/14 05:45:52;;;;;;;14.23;11.25;;;;;;;2.68;75.82;101445.91;5108002;27;20043;-70
2021/12/14 05:48:22;;;;;;;22.40;12.32;;;;;;;2.70;75.32;101421.84;5106141;27;20143;-69
2021/12/14 05:50:51;;;;;;;23.33;11.73;;;;;;;2.72;75.42;101433.16;5093967;27;20027;-70
2021/12/14 05:53:19;;;;;;;19.92;13.43;;;;;;;2.49;76.02;101413.91;5107411;27;20048;-70
2021/12/14 05:55:45;;;;;;;19.08;12.77;;;;;;;2.65;76.12;101449.25;5112884;27;20050;-70
2021/12/14 05:58:17;;;;;;;31.10;14.45;;;;;;;2.45;76.66;101426.66;5107293;27;20035;-70
2021/12/14 06:00:56;;;;;;;15.10;9.82;;;;;;;2.27;75.07;101417.16;5090609;27;20163;-70
2021/12/14 06:03:28;;;;;;;18.30;11.27;;;;;;;2.69;75.27;101453.75;5106423;27;20035;-71
2021/12/14 06:05:55;;;;;;;17.58;12.10;;;;;;;2.59;74.75;101453.22;5110732;27;20139;-71
2021/12/14 06:08:24;;;;;;;16.45;9.65;;;;;;;2.26;75.15;101450.75;5106097;27;20780;-69
2021/12/14 06:10:52;;;;;;;20.00;11.20;;;;;;;2.40;74.84;101441.06;5108736;27;20478;-68
2021/12/14 06:13:19;;;;;;;17.58;10.60;;;;;;;2.30;73.83;101435.44;5108345;27;20140;-69
2021/12/14 06:15:45;;;;;;;17.10;10.30;;;;;;;2.32;74.45;101431.22;5089866;27;20044;-69
2021/12/14 06:18:13;;;;;;;21.45;11.98;;;;;;;2.41;74.00;101461.88;5110588;27;20031;-69
2021/12/14 06:20:43;;;;;;;14.98;10.10;;;;;;;2.44;73.43;101462.03;5105771;27;20984;-69
2021/12/14 06:23:08;;;;;;;15.52;10.75;;;;;;;2.54;73.48;101465.97;5092146;27;20126;-69
2021/12/14 06:25:34;;;;;;;19.52;11.05;;;;;;;2.30;72.97;101431.97;5110671;27;20055;-69
2021/12/14 06:28:02;;;;;;;15.32;9.00;;;;;;;2.31;73.44;101436.31;5108316;27;20465;-69
2021/12/14 06:30:32;;;;;;;15.52;8.98;;;;;;;2.63;72.76;101437.91;5106238;27;20031;-69
2021/12/14 06:33:03;;;;;;;16.33;9.63;;;;;;;2.65;72.78;101451.81;5090258;27;20035;-69
2021/12/14 06:35:35;;;;;;;16.40;10.82;;;;;;;2.37;73.03;101451.28;5107966;27;20518;-69
2021/12/14 06:40:51;;;;;;;21.23;10.95;;;;;;;2.48;73.59;101463.06;5106336;27;20568;-67
2021/12/14 06:43:24;;;;;;;16.80;10.10;;;;;;;2.39;73.83;101452.22;5109379;27;20201;-69
2021/12/14 06:45:59;;;;;;;15.95;10.10;;;;;;;2.62;73.04;101455.97;5088605;27;20222;-67
2021/12/14 06:48:41;;;;;;;12.77;10.35;;;;;;;2.31;74.29;101434.59;5109658;27;20055;-84
2021/12/14 06:51:33;;;;;;;20.73;8.43;;;;;;;2.33;74.37;101447.66;5107939;27;20096;-67
2021/12/14 06:54:03;;;;;;;16.42;9.10;;;;;;;2.20;75.21;101464.28;5081028;27;22950;-67
2021/12/14 06:56:31;;;;;;;15.32;9.77;;;;;;;2.41;74.11;101460.97;5105260;27;21608;-68
2021/12/14 06:59:08;;;;;;;14.43;8.60;;;;;;;2.13;75.02;101476.81;5108324;27;20046;-68
2021/12/14 07:01:51;;;;;;;14.68;9.68;;;;;;;2.47;74.76;101461.28;5109018;27;20039;-68
2021/12/14 07:04:23;;;;;;;18.02;10.80;;;;;;;2.49;74.62;101478.69;5107673;27;20116;-68
2021/12/14 07:06:59;;;;;;;12.35;8.60;;;;;;;2.16;74.54;101459.75;5108963;27;20113;-68
2021/12/14 07:09:33;;;;;;;13.40;8.35;;;;;;;1.99;75.24;101468.34;5106215;27;20035;-68
2021/12/14 07:12:03;;;;;;;13.32;8.10;;;;;;;2.36;75.50;101475.41;5092249;27;20026;-68
2021/12/14 07:14:31;;;;;;;16.98;10.45;;;;;;;1.97;75.24;101459.63;5112668;27;20043;-68
2021/12/14 07:17:10;;;;;;;12.95;9.35;;;;;;;2.30;75.02;101478.56;5109620;27;20162;-68
2021/12/14 07:19:52;;;;;;;15.18;9.27;;;;;;;2.18;75.14;101476.25;5091979;27;20043;-69
2021/12/14 07:22:30;;;;;;;19.88;9.77;;;;;;;2.01;74.22;101461.53;5110720;27;20395;-69
2021/12/14 07:25:06;;;;;;;14.52;8.95;;;;;;;2.05;74.45;101481.59;5113006;27;20067;-68
2021/12/14 07:27:56;;;;;;;14.07;9.50;;;;;;;2.38;73.68;101490.19;5090765;27;20050;-68
2021/12/14 07:30:30;;;;;;;16.15;9.35;;;;;;;1.94;74.08;101468.09;5110597;27;20097;-66
2021/12/14 07:33:10;;;;;;;12.55;9.18;;;;;;;2.25;74.19;101487.81;5111061;27;20057;-70
2021/12/14 07:35:49;;;;;;;14.77;8.70;;;;;;;1.93;74.58;101461.16;5095044;27;20522;-71
2021/12/14 07:38:14;;;;;;;16.30;9.88;;;;;;;2.14;73.90;101483.78;5093825;27;20126;-69
2021/12/14 07:40:42;;;;;;;15.05;9.15;;;;;;;1.96;73.89;101476.81;5091966;27;20096;-70
2021/12/14 07:43:09;;;;;;;15.68;10.13;;;;;;;2.00;74.01;101472.72;5111822;27;20514;-69
2021/12/14 07:45:36;;;;;;;13.60;9.98;;;;;;;2.31;73.98;101506.25;5093673;27;20082;-68
2021/12/14 07:48:02;;;;;;;19.08;9.88;;;;;;;2.02;74.00;101482.34;5110368;27;20764;-68
2021/12/14 07:50:48;;;;;;;14.60;9.65;;;;;;;2.19;73.29;101470.25;5112021;27;20046;-69
2021/12/14 07:53:14;;;;;;;14.75;10.32;;;;;;;2.53;72.78;101480.63;5111845;27;20047;-70
2021/12/14 07:55:43;;;;;;;15.88;9.35;;;;;;;2.10;73.06;101481.03;5111269;27;20047;-69
2021/12/14 07:58:10;;;;;;;16.42;12.00;;;;;;;2.30;73.27;101504.47;5109062;27;20075;-68
2021/12/14 08:00:40;;;;;;;41.03;14.05;;;;;;;2.30;74.12;101495.00;5110650;27;20057;-69
2021/12/14 08:03:08;;;;;;;20.92;10.98;;;;;;;2.27;73.84;101512.97;5108963;27;20478;-72
2021/12/14 08:05:44;;;;;;;24.50;11.82;;;;;;;2.11;73.67;101481.94;5076861;27;20050;-71
2021/12/14 08:08:18;;;;;;;37.50;17.95;;;;;;;2.46;74.97;101521.69;5108019;27;20043;-68
2021/12/14 08:10:56;;;;;;;19.60;10.88;;;;;;;2.14;74.05;101486.38;5108942;27;20042;-68
2021/12/14 08:13:24;;;;;;;16.50;10.15;;;;;;;2.23;73.07;101503.25;5112547;27;20138;-68
2021/12/14 08:15:56;;;;;;;19.13;10.88;;;;;;;2.35;72.78;101517.66;5095172;27;20479;-68
2021/12/14 08:18:24;;;;;;;21.20;12.60;;;;;;;2.63;72.89;101513.03;5111825;27;20037;-68
2021/12/14 08:20:51;;;;;;;18.80;9.85;;;;;;;2.42;73.24;101502.50;5094662;27;20170;-68
2021/12/14 08:23:25;;;;;;;20.88;12.57;;;;;;;2.34;73.31;101503.78;5113240;27;20043;-71
2021/12/14 08:25:55;;;;;;;19.33;13.73;;;;;;;2.33;72.83;101512.38;5108372;27;20116;-71
2021/12/14 08:28:22;;;;;;;20.23;14.90;;;;;;;2.45;73.33;101509.53;5090024;27;20046;-71
2021/12/14 08:30:59;;;;;;;31.80;14.85;;;;;;;2.57;73.31;101512.72;5106414;27;20051;-70
2021/12/14 08:33:27;;;;;;;16.55;10.70;;;;;;;2.23;72.98;101511.03;5109532;27;20038;-68
2021/12/14 08:35:55;;;;;;;20.35;11.43;;;;;;;2.19;73.73;101522.03;5113461;27;20118;-70
2021/12/14 08:38:21;;;;;;;25.02;15.73;;;;;;;2.66;73.30;101535.63;5093773;27;20047;-68
2021/12/14 08:40:54;;;;;;;20.40;11.48;;;;;;;2.80;71.98;101538.91;5091411;27;20046;-68
2021/12/14 08:43:33;;;;;;;21.63;9.77;;;;;;;2.88;72.25;101522.94;5111335;27;20352;-68
2021/12/14 08:46:13;;;;;;;19.25;13.85;;;;;;;2.69;72.72;101513.38;5091417;27;20074;-69
2021/12/14 08:48:52;;;;;;;22.48;12.75;;;;;;;3.04;73.35;101534.03;5109121;27;20510;-70
2021/12/14 08:51:27;;;;;;;22.63;14.85;;;;;;;3.31;72.55;101526.69;5090621;27;20758;-70
2021/12/14 08:53:58;;;;;;;21.10;13.73;;;;;;;3.25;71.57;101500.47;5108414;27;20057;-70
2021/12/14 08:56:27;;;;;;;17.83;12.30;;;;;;;3.01;71.02;101510.56;5090544;27;20073;-69
2021/12/14 08:58:53;;;;;;;18.25;12.13;;;;;;;2.54;71.46;101500.50;5090680;27;20050;-69
2021/12/14 09:01:23;;;;;;;21.55;12.05;;;;;;;2.88;70.91;101511.66;5107898;27;20048;-69
2021/12/14 09:03:54;;;;;;;17.77;10.32;;;;;;;2.90;70.49;101508.34;5105288;27;20043;-69
2021/12/14 09:06:24;;;;;;;39.67;22.33;;;;;;;3.43;69.27;101485.75;5109560;27;20047;-69
2021/12/14 09:08:51;;;;;;;17.52;9.32;;;;;;;2.73;70.73;101478.09;5106340;27;20058;-69
2021/12/14 09:11:21;;;;;;;15.85;10.20;;;;;;;2.85;70.71;101502.03;5108000;27;20082;-68
2021/12/14 09:13:47;;;;;;;18.73;11.60;;;;;;;3.42;69.66;101489.19;5090678;27;20158;-68
2021/12/14 09:16:21;;;;;;;16.50;10.85;;;;;;;3.14;69.43;101485.28;5106929;27;20221;-69
2021/12/14 09:18:55;;;;;;;15.15;10.20;;;;;;;2.53;72.08;101482.31;5106682;27;20505;-68
2021/12/14 09:21:29;;;;;;;20.13;11.52;;;;;;;3.20;70.89;101496.75;5088761;27;20114;-68
2021/12/14 09:24:00;;;;;;;16.25;10.15;;;;;;;2.89;70.76;101471.97;5107594;27;20475;-67
2021/12/14 09:26:31;;;;;;;16.58;12.60;;;;;;;3.33;70.69;101483.56;5091122;27;20137;-70
2021/12/14 09:28:57;;;;;;;17.90;11.82;;;;;;;3.27;70.25;101471.19;5090847;27;20059;-70
2021/12/14 09:31:27;;;;;;;19.10;10.60;;;;;;;2.87;72.15;101461.53;5092712;27;20295;-68
2021/12/14 09:33:55;;;;;;;33.38;12.25;;;;;;;2.91;71.27;101450.50;5108793;27;20043;-68
2021/12/14 09:36:21;;;;;;;17.65;11.52;;;;;;;2.94;71.51;101480.84;5088596;27;20027;-68
2021/12/14 09:38:54;;;;;;;13.23;9.45;;;;;;;2.95;71.72;101470.56;5111830;27;20046;-68
2021/12/14 09:41:23;;;;;;;18.08;12.23;;;;;;;2.92;73.21;101464.34;5114665;27;20055;-68
2021/12/14 09:43:50;;;;;;;24.13;15.07;;;;;;;3.20;72.03;101468.25;5091113;27;21396;-68
2021/12/14 09:46:18;;;;;;;20.45;12.07;;;;;;;3.17;70.76;101482.84;5094451;27;20142;-67
2021/12/14 09:48:58;;;;;;;21.58;11.88;;;;;;;3.19;69.82;101438.84;5105077;27;20039;-68
2021/12/14 09:51:47;;;;;;;20.02;11.98;;;;;;;3.06;72.35;101454.63;5090820;27;20055;-69
2021/12/14 09:54:18;;;;;;;18.50;11.38;;;;;;;2.81;71.78;101448.28;5109300;27;20035;-67
2021/12/14 09:56:49;;;;;;;24.88;13.40;;;;;;;2.79;72.50;101451.63;5088378;27;20131;-70
2021/12/14 09:59:15;;;;;;;23.13;16.08;;;;;;;3.25;70.52;101433.03;5108242;27;20047;-68
2021/12/14 10:01:44;;;;;;;19.58;14.07;;;;;;;3.28;70.26;101436.66;5108384;27;21825;-70
2021/12/14 10:04:15;;;;;;;18.58;12.77;;;;;;;3.08;70.65;101435.72;5108057;27;20051;-68
2021/12/14 10:06:41;;;;;;;25.30;13.65;;;;;;;3.38;71.53;101459.59;5109611;27;22661;-71
2021/12/14 10:09:12;;;;;;;15.75;10.07;;;;;;;3.10;71.67;101420.25;5108525;27;20034;-70
2021/12/14 10:14:18;;;;;;;20.50;11.75;;;;;;;3.59;69.75;101440.66;5104639;27;20063;-69
2021/12/14 10:16:44;;;;;;;22.15;13.45;;;;;;;3.44;71.17;101443.44;5089250;27;20043;-71
2021/12/14 10:19:17;;;;;;;21.52;13.20;;;;;;;3.44;71.66;101445.13;5108291;27;20049;-72
2021/12/14 10:21:52;;;;;;;22.33;13.32;;;;;;;3.33;71.15;101429.09;5111579;27;20134;-69
2021/12/14 10:24:18;;;;;;;20.63;12.23;;;;;;;3.35;72.05;101427.47;5105425;27;20028;-68
2021/12/14 10:26:52;;;;;;;33.40;16.35;;;;;;;3.37;71.79;101434.50;5108555;27;20292;-68
2021/12/14 10:29:20;;;;;;;21.70;13.82;;;;;;;3.65;72.55;101460.78;5091206;27;20406;-69
2021/12/14 10:31:51;;;;;;;25.42;15.15;;;;;;;3.16;72.39;101430.88;5091798;27;20233;-71
2021/12/14 10:34:22;;;;;;;31.13;12.68;;;;;;;3.90;70.39;101453.25;5107249;27;20153;-70
2021/12/14 10:36:52;;;;;;;33.85;14.07;;;;;;;3.93;69.23;101429.13;5106838;27;20043;-70
2021/12/14 10:44:46;;;;;;;37.15;22.90;;;;;;;3.64;70.90;101454.72;5110185;27;20050;-70
2021/12/14 10:47:15;;;;;;;20.88;13.13;;;;;;;3.55;71.03;101442.19;5111450;27;20652;-71
2021/12/14 10:49:42;;;;;;;25.13;16.60;;;;;;;3.77;69.76;101458.75;5108391;27;20428;-70
2021/12/14 10:52:14;;;;;;;20.20;13.98;;;;;;;3.58;70.79;101433.66;5109909;27;20044;-71
2021/12/14 10:54:47;;;;;;;23.77;15.63;;;;;;;3.63;71.15;101439.06;5097577;27;20529;-69
2021/12/14 10:57:18;;;;;;;16.65;9.70;;;;;;;3.45;72.32;101471.16;5096519;27;20031;-68
2021/12/14 10:59:46;;;;;;;18.73;13.07;;;;;;;3.77;71.07;101444.06;5092578;27;20519;-68
2021/12/14 11:02:12;;;;;;;18.85;12.88;;;;;;;3.94;70.42;101443.91;5090899;27;20047;-68
2021/12/14 11:04:41;;;;;;;21.02;12.93;;;;;;;3.38;71.48;101436.25;5109344;27;20491;-69
2021/12/14 11:07:18;;;;;;;19.92;14.50;;;;;;;3.00;72.66;101426.72;5096902;27;20085;-68
2021/12/14 11:09:52;;;;;;;20.88;14.90;;;;;;;3.21;72.40;101444.06;5093232;27;20491;-68
2021/12/14 11:12:18;;;;;;;25.67;15.75;;;;;;;3.46;72.03;101436.59;5094111;27;20027;-68
2021/12/14 11:14:46;;;;;;;26.55;16.30;;;;;;;3.17;72.39;101430.09;5111572;27;20038;-69
2021/12/14 11:20:14;;;;;;;25.17;14.52;;;;;;;3.35;72.63;101430.06;5111094;27;20099;-68
2021/12/14 11:22:47;;;;;;;28.48;14.63;;;;;;;3.20;73.36;101414.66;5113203;27;20046;-69
2021/12/14 11:25:19;;;;;;;34.63;17.42;;;;;;;3.31;73.44;101415.16;5113393;27;20256;-69
2021/12/14 11:27:50;;;;;;;31.90;19.17;;;;;;;3.38;74.70;101417.22;5114210;27;20044;-69
2021/12/14 11:30:32;;;;;;;27.75;16.02;;;;;;;3.31;74.66;101418.63;5109859;27;20034;-68
2021/12/14 11:33:17;;;;;;;31.48;16.60;;;;;;;3.62;73.39;101408.75;5110916;27;20043;-68
2021/12/14 11:36:03;;;;;;;26.00;17.17;;;;;;;3.77;73.18;101444.06;5110319;27;20892;-67
2021/12/14 11:38:35;;;;;;;26.13;14.80;;;;;;;3.47;73.96;101432.31;5099867;27;20066;-68
2021/12/14 11:41:19;;;;;;;25.95;16.83;;;;;;;3.81;71.90;101393.16;5091275;27;20138;-68
2021/12/14 11:43:51;;;;;;;35.65;16.88;;;;;;;3.80;71.96;101412.16;5112336;27;20042;-66
2021/12/14 11:46:18;;;;;;;29.45;15.82;;;;;;;3.36;73.21;101398.09;5091020;27;20047;-68
2021/12/14 11:48:44;;;;;;;25.13;15.93;;;;;;;3.48;73.13;101406.41;5110699;27;20077;-68
2021/12/14 11:51:10;;;;;;;27.17;15.90;;;;;;;3.59;74.13;101412.97;5111359;27;20459;-67
2021/12/14 11:53:36;;;;;;;29.75;19.27;;;;;;;3.58;73.56;101415.50;5110005;27;20043;-69
2021/12/14 11:56:13;;;;;;;34.72;17.63;;;;;;;3.71;72.95;101409.16;5109530;27;20047;-69
2021/12/14 11:58:43;;;;;;;28.92;18.63;;;;;;;4.01;72.81;101440.75;5110547;27;20463;-69
2021/12/14 12:01:34;;;;;;;28.60;16.63;;;;;;;3.59;73.86;101406.91;5106429;27;20039;-68
2021/12/14 12:04:12;;;;;;;33.03;16.30;;;;;;;3.36;75.36;101413.66;5112188;27;20047;-68
2021/12/14 12:09:37;;;;;;;31.73;18.38;;;;;;;3.63;74.24;101426.09;5109183;27;20027;-69
2021/12/14 12:12:06;;;;;;;26.35;17.65;;;;;;;3.49;74.65;101387.47;5112324;27;20041;-69
2021/12/14 12:14:45;;;;;;;26.05;16.90;;;;;;;3.74;73.16;101391.13;5094460;27;20118;-71
2021/12/14 12:17:23;;;;;;;30.95;17.40;;;;;;;3.96;72.27;101399.00;5097517;27;20525;-71
2021/12/14 12:20:16;;;;;;;67.80;19.55;;;;;;;3.87;73.47;101393.44;5112669;27;20039;-71
2021/12/14 12:22:44;;;;;;;36.63;19.48;;;;;;;3.33;74.71;101383.28;5107752;27;20791;-70
2021/12/14 12:25:13;;;;;;;39.90;21.80;;;;;;;3.48;75.07;101396.03;5090883;27;20506;-70
2021/12/14 12:27:46;;;;;;;38.35;19.27;;;;;;;4.01;74.24;101401.81;5111459;27;20048;-70